Nora, Nebraska
Current Conditions -  °F | °C
As of 5:55 PM on Friday 19 Dec 2014 (Local Time) from KHJH Reporting Station
Overcast Overcast  
Wind Chill: -3°   Ceiling: 1500
Heat Index:   Visibility: 7mi
Dew Point: -1°   Wind: 8mph
Humidity: 90%   Direction: 170°S
Pressure: 30.13"   Gusts: NA
Location:  40.2199°N, 98.0479°W
Report Text: KHJH 192355Z AUTO 17007KT 7SM OVC015 01/M01 A3013 RMK AO2 T00051010 10010 20002
Loading
Personal Weather Stations






























Interactive Weather Map New forecast layout! Learn more

10-Day Weather Forecast

Advertisements
Track Severe Weather on mobile